sensor_id;sensor_type;location;lat;lon;timestamp;temperature;humidity
3944;DHT22;1986;52.546;13.428;2022-09-03T00:01:19;14.60;99.90
3944;DHT22;1986;52.546;13.428;2022-09-03T00:03:54;14.60;99.90
3944;DHT22;1986;52.546;13.428;2022-09-03T00:06:26;14.60;99.90
3944;DHT22;1986;52.546;13.428;2022-09-03T00:09:32;14.60;99.90
3944;DHT22;1986;52.546;13.428;2022-09-03T00:12:09;14.50;99.90
3944;DHT22;1986;52.546;13.428;2022-09-03T00:14:40;14.50;99.90
3944;DHT22;1986;52.546;13.428;2022-09-03T00:17:14;14.50;99.90
3944;DHT22;1986;52.546;13.428;2022-09-03T00:19:46;14.50;99.90
3944;DHT22;1986;52.546;13.428;2022-09-03T00:22:30;14.50;99.90
3944;DHT22;1986;52.546;13.428;2022-09-03T00:25:36;14.50;99.90
3944;DHT22;1986;52.546;13.428;2022-09-03T00:28:15;14.40;99.90
3944;DHT22;1986;52.546;13.428;2022-09-03T00:30:51;14.40;99.90
3944;DHT22;1986;52.546;13.428;2022-09-03T00:33:24;14.40;99.90
3944;DHT22;1986;52.546;13.428;2022-09-03T00:36:01;14.40;99.90
3944;DHT22;1986;52.546;13.428;2022-09-03T00:38:30;14.30;99.90
3944;DHT22;1986;52.546;13.428;2022-09-03T00:41:06;14.30;99.90
3944;DHT22;1986;52.546;13.428;2022-09-03T00:43:51;14.20;99.90
3944;DHT22;1986;52.546;13.428;2022-09-03T00:46:28;14.20;99.90
3944;DHT22;1986;52.546;13.428;2022-09-03T00:49:18;14.20;99.90
3944;DHT22;1986;52.546;13.428;2022-09-03T00:51:54;14.10;99.90
3944;DHT22;1986;52.546;13.428;2022-09-03T00:54:32;14.10;99.90
3944;DHT22;1986;52.546;13.428;2022-09-03T00:57:19;14.00;99.90
3944;DHT22;1986;52.546;13.428;2022-09-03T00:59:56;14.00;99.90
3944;DHT22;1986;52.546;13.428;2022-09-03T01:02:46;14.00;99.90
3944;DHT22;1986;52.546;13.428;2022-09-03T01:05:25;13.90;99.90
3944;DHT22;1986;52.546;13.428;2022-09-03T01:07:58;13.90;99.90
3944;DHT22;1986;52.546;13.428;2022-09-03T01:10:37;13.90;99.90
3944;DHT22;1986;52.546;13.428;2022-09-03T01:13:16;13.90;99.90
3944;DHT22;1986;52.546;13.428;2022-09-03T01:15:54;13.90;99.90
3944;DHT22;1986;52.546;13.428;2022-09-03T01:18:35;13.80;99.90
3944;DHT22;1986;52.546;13.428;2022-09-03T01:24:14;13.80;99.90
3944;DHT22;1986;52.546;13.428;2022-09-03T01:26:54;13.80;99.90
3944;DHT22;1986;52.546;13.428;2022-09-03T01:29:30;13.70;99.90
3944;DHT22;1986;52.546;13.428;2022-09-03T01:32:07;13.70;99.90
3944;DHT22;1986;52.546;13.428;2022-09-03T01:34:53;13.70;99.90
3944;DHT22;1986;52.546;13.428;2022-09-03T01:37:35;13.70;99.90
3944;DHT22;1986;52.546;13.428;2022-09-03T01:40:13;13.70;99.90
3944;DHT22;1986;52.546;13.428;2022-09-03T01:42:56;13.70;99.90
3944;DHT22;1986;52.546;13.428;2022-09-03T01:45:39;13.60;99.90
3944;DHT22;1986;52.546;13.428;2022-09-03T01:48:20;13.60;99.90
3944;DHT22;1986;52.546;13.428;2022-09-03T01:50:55;13.50;99.90
3944;DHT22;1986;52.546;13.428;2022-09-03T01:53:42;13.50;99.90
3944;DHT22;1986;52.546;13.428;2022-09-03T01:56:32;13.50;99.90
3944;DHT22;1986;52.546;13.428;2022-09-03T01:59:08;13.50;99.90
3944;DHT22;1986;52.546;13.428;2022-09-03T02:01:45;13.50;99.90
3944;DHT22;1986;52.546;13.428;2022-09-03T02:04:18;13.40;99.90
3944;DHT22;1986;52.546;13.428;2022-09-03T02:06:48;13.40;99.90
3944;DHT22;1986;52.546;13.428;2022-09-03T02:09:17;13.40;99.90
3944;DHT22;1986;52.546;13.428;2022-09-03T02:11:50;13.30;99.90
3944;DHT22;1986;52.546;13.428;2022-09-03T02:14:29;13.30;99.90
3944;DHT22;1986;52.546;13.428;2022-09-03T02:17:03;13.30;99.90
3944;DHT22;1986;52.546;13.428;2022-09-03T02:19:34;13.30;99.90
3944;DHT22;1986;52.546;13.428;2022-09-03T02:22:04;13.30;99.90
3944;DHT22;1986;52.546;13.428;2022-09-03T02:24:31;13.30;99.90
3944;DHT22;1986;52.546;13.428;2022-09-03T02:26:58;13.20;99.90
3944;DHT22;1986;52.546;13.428;2022-09-03T02:29:26;13.20;99.90
3944;DHT22;1986;52.546;13.428;2022-09-03T02:31:58;13.20;99.90
3944;DHT22;1986;52.546;13.428;2022-09-03T02:34:31;13.20;99.90
3944;DHT22;1986;52.546;13.428;2022-09-03T02:36:58;13.20;99.90
3944;DHT22;1986;52.546;13.428;2022-09-03T02:39:25;13.20;99.90
3944;DHT22;1986;52.546;13.428;2022-09-03T02:41:56;13.10;99.90
3944;DHT22;1986;52.546;13.428;2022-09-03T02:44:29;13.10;99.90
3944;DHT22;1986;52.546;13.428;2022-09-03T02:47:03;13.10;99.90
3944;DHT22;1986;52.546;13.428;2022-09-03T02:49:32;13.00;99.90
3944;DHT22;1986;52.546;13.428;2022-09-03T02:52:01;13.00;99.90
3944;DHT22;1986;52.546;13.428;2022-09-03T02:54:32;13.00;99.90
3944;DHT22;1986;52.546;13.428;2022-09-03T02:57:02;13.00;99.90
3944;DHT22;1986;52.546;13.428;2022-09-03T02:59:29;13.00;99.90
3944;DHT22;1986;52.546;13.428;2022-09-03T03:01:56;13.00;99.90
3944;DHT22;1986;52.546;13.428;2022-09-03T03:04:25;13.00;99.90
3944;DHT22;1986;52.546;13.428;2022-09-03T03:06:52;12.90;99.90
3944;DHT22;1986;52.546;13.428;2022-09-03T03:09:20;12.90;99.90
3944;DHT22;1986;52.546;13.428;2022-09-03T03:11:48;12.80;99.90
3944;DHT22;1986;52.546;13.428;2022-09-03T03:14:16;12.80;99.90
3944;DHT22;1986;52.546;13.428;2022-09-03T03:16:43;12.80;99.90
3944;DHT22;1986;52.546;13.428;2022-09-03T03:19:11;12.80;99.90
3944;DHT22;1986;52.546;13.428;2022-09-03T03:21:40;12.80;99.90
3944;DHT22;1986;52.546;13.428;2022-09-03T03:24:08;12.80;99.90
3944;DHT22;1986;52.546;13.428;2022-09-03T03:26:40;12.70;99.90
3944;DHT22;1986;52.546;13.428;2022-09-03T03:29:13;12.70;99.90
3944;DHT22;1986;52.546;13.428;2022-09-03T03:31:44;12.70;99.90
3944;DHT22;1986;52.546;13.428;2022-09-03T03:34:12;12.70;99.90
3944;DHT22;1986;52.546;13.428;2022-09-03T03:36:40;12.60;99.90
3944;DHT22;1986;52.546;13.428;2022-09-03T03:39:07;12.60;99.90
3944;DHT22;1986;52.546;13.428;2022-09-03T03:41:35;12.60;99.90
3944;DHT22;1986;52.546;13.428;2022-09-03T03:44:04;12.60;99.90
3944;DHT22;1986;52.546;13.428;2022-09-03T03:46:35;12.60;99.90
3944;DHT22;1986;52.546;13.428;2022-09-03T03:49:05;12.60;99.90
3944;DHT22;1986;52.546;13.428;2022-09-03T03:51:32;12.60;99.90
3944;DHT22;1986;52.546;13.428;2022-09-03T03:54:01;12.60;99.90
3944;DHT22;1986;52.546;13.428;2022-09-03T03:56:28;12.60;99.90
3944;DHT22;1986;52.546;13.428;2022-09-03T03:58:55;12.50;99.90
3944;DHT22;1986;52.546;13.428;2022-09-03T04:01:26;12.50;99.90
3944;DHT22;1986;52.546;13.428;2022-09-03T04:03:54;12.50;99.90
3944;DHT22;1986;52.546;13.428;2022-09-03T04:06:21;12.50;99.90
3944;DHT22;1986;52.546;13.428;2022-09-03T04:08:49;12.50;99.90
3944;DHT22;1986;52.546;13.428;2022-09-03T04:11:20;12.60;99.90
3944;DHT22;1986;52.546;13.428;2022-09-03T04:13:48;12.60;99.90
3944;DHT22;1986;52.546;13.428;2022-09-03T04:16:17;12.60;99.90
3944;DHT22;1986;52.546;13.428;2022-09-03T04:18:45;12.60;99.90
3944;DHT22;1986;52.546;13.428;2022-09-03T04:21:15;12.50;99.90
3944;DHT22;1986;52.546;13.428;2022-09-03T04:23:45;12.50;99.90
3944;DHT22;1986;52.546;13.428;2022-09-03T04:26:15;12.50;99.90
3944;DHT22;1986;52.546;13.428;2022-09-03T04:28:43;12.50;99.90
3944;DHT22;1986;52.546;13.428;2022-09-03T04:31:12;12.50;99.90
3944;DHT22;1986;52.546;13.428;2022-09-03T04:33:39;12.50;99.90
3944;DHT22;1986;52.546;13.428;2022-09-03T04:36:09;12.40;99.90
3944;DHT22;1986;52.546;13.428;2022-09-03T04:38:41;12.40;99.90
3944;DHT22;1986;52.546;13.428;2022-09-03T04:41:10;12.50;99.90
3944;DHT22;1986;52.546;13.428;2022-09-03T04:43:38;12.50;99.90
3944;DHT22;1986;52.546;13.428;2022-09-03T04:46:09;12.50;99.90
3944;DHT22;1986;52.546;13.428;2022-09-03T04:48:38;12.50;99.90
3944;DHT22;1986;52.546;13.428;2022-09-03T04:51:07;12.50;99.90
3944;DHT22;1986;52.546;13.428;2022-09-03T04:53:36;12.50;99.90
3944;DHT22;1986;52.546;13.428;2022-09-03T04:56:11;12.60;99.90
3944;DHT22;1986;52.546;13.428;2022-09-03T04:58:38;12.60;99.90
3944;DHT22;1986;52.546;13.428;2022-09-03T05:01:08;12.60;99.90
3944;DHT22;1986;52.546;13.428;2022-09-03T05:03:35;12.70;99.90
3944;DHT22;1986;52.546;13.428;2022-09-03T05:06:03;12.70;99.90
3944;DHT22;1986;52.546;13.428;2022-09-03T05:08:31;12.80;99.90
3944;DHT22;1986;52.546;13.428;2022-09-03T05:11:04;12.90;99.90
3944;DHT22;1986;52.546;13.428;2022-09-03T05:13:31;12.90;99.90
3944;DHT22;1986;52.546;13.428;2022-09-03T05:16:00;12.90;99.90
3944;DHT22;1986;52.546;13.428;2022-09-03T05:18:29;12.90;99.90
3944;DHT22;1986;52.546;13.428;2022-09-03T05:20:59;12.90;99.90
3944;DHT22;1986;52.546;13.428;2022-09-03T05:23:30;12.80;99.90
3944;DHT22;1986;52.546;13.428;2022-09-03T05:25:58;12.90;99.90
3944;DHT22;1986;52.546;13.428;2022-09-03T05:28:25;12.80;99.90
3944;DHT22;1986;52.546;13.428;2022-09-03T05:30:59;12.90;99.90
3944;DHT22;1986;52.546;13.428;2022-09-03T05:33:28;13.00;99.90
3944;DHT22;1986;52.546;13.428;2022-09-03T05:36:00;13.00;99.90
3944;DHT22;1986;52.546;13.428;2022-09-03T05:38:27;13.20;99.90
3944;DHT22;1986;52.546;13.428;2022-09-03T05:40:57;13.40;99.90
3944;DHT22;1986;52.546;13.428;2022-09-03T05:43:25;13.50;99.90
3944;DHT22;1986;52.546;13.428;2022-09-03T05:45:56;13.40;99.90
3944;DHT22;1986;52.546;13.428;2022-09-03T05:48:23;13.60;99.90
3944;DHT22;1986;52.546;13.428;2022-09-03T05:50:59;13.70;99.90
3944;DHT22;1986;52.546;13.428;2022-09-03T05:53:26;13.60;99.90
3944;DHT22;1986;52.546;13.428;2022-09-03T05:55:57;13.70;99.90
3944;DHT22;1986;52.546;13.428;2022-09-03T05:58:28;13.80;99.90
3944;DHT22;1986;52.546;13.428;2022-09-03T06:00:55;13.80;99.90
3944;DHT22;1986;52.546;13.428;2022-09-03T06:03:23;13.40;99.90
3944;DHT22;1986;52.546;13.428;2022-09-03T06:05:50;13.30;99.90
3944;DHT22;1986;52.546;13.428;2022-09-03T06:08:19;13.20;99.90
3944;DHT22;1986;52.546;13.428;2022-09-03T06:10:46;13.30;99.90
3944;DHT22;1986;52.546;13.428;2022-09-03T06:13:13;13.30;99.90
3944;DHT22;1986;52.546;13.428;2022-09-03T06:15:41;13.80;99.90
3944;DHT22;1986;52.546;13.428;2022-09-03T06:18:08;14.40;99.90
3944;DHT22;1986;52.546;13.428;2022-09-03T06:20:35;15.10;99.90
3944;DHT22;1986;52.546;13.428;2022-09-03T06:23:02;15.20;99.90
3944;DHT22;1986;52.546;13.428;2022-09-03T06:25:30;15.60;99.90
3944;DHT22;1986;52.546;13.428;2022-09-03T06:27:57;15.80;99.90
3944;DHT22;1986;52.546;13.428;2022-09-03T06:30:24;15.70;99.90
3944;DHT22;1986;52.546;13.428;2022-09-03T06:32:51;16.00;99.90
3944;DHT22;1986;52.546;13.428;2022-09-03T06:35:18;16.70;99.90
3944;DHT22;1986;52.546;13.428;2022-09-03T06:37:45;16.90;99.90
3944;DHT22;1986;52.546;13.428;2022-09-03T06:40:12;16.60;99.90
3944;DHT22;1986;52.546;13.428;2022-09-03T06:42:55;16.60;99.90
3944;DHT22;1986;52.546;13.428;2022-09-03T06:45:23;16.50;99.90
3944;DHT22;1986;52.546;13.428;2022-09-03T06:47:50;16.10;99.90
3944;DHT22;1986;52.546;13.428;2022-09-03T06:50:17;15.70;99.90
3944;DHT22;1986;52.546;13.428;2022-09-03T06:52:49;15.10;99.90
3944;DHT22;1986;52.546;13.428;2022-09-03T06:55:16;15.10;99.90
3944;DHT22;1986;52.546;13.428;2022-09-03T06:57:43;14.90;99.90
3944;DHT22;1986;52.546;13.428;2022-09-03T07:00:12;15.10;99.90
3944;DHT22;1986;52.546;13.428;2022-09-03T07:02:40;15.00;99.90
3944;DHT22;1986;52.546;13.428;2022-09-03T07:05:07;14.90;99.90
3944;DHT22;1986;52.546;13.428;2022-09-03T07:07:34;15.50;99.90
3944;DHT22;1986;52.546;13.428;2022-09-03T07:10:02;16.00;99.90
3944;DHT22;1986;52.546;13.428;2022-09-03T07:12:30;16.50;99.90
3944;DHT22;1986;52.546;13.428;2022-09-03T07:15:02;16.40;99.90
3944;DHT22;1986;52.546;13.428;2022-09-03T07:17:30;16.40;99.90
3944;DHT22;1986;52.546;13.428;2022-09-03T07:19:57;16.80;99.90
3944;DHT22;1986;52.546;13.428;2022-09-03T07:22:25;16.70;99.90
3944;DHT22;1986;52.546;13.428;2022-09-03T07:24:55;16.70;99.90
3944;DHT22;1986;52.546;13.428;2022-09-03T07:27:22;16.70;99.90
3944;DHT22;1986;52.546;13.428;2022-09-03T07:29:48;16.90;99.90
3944;DHT22;1986;52.546;13.428;2022-09-03T07:32:15;17.00;99.90
3944;DHT22;1986;52.546;13.428;2022-09-03T07:34:44;17.40;99.90
3944;DHT22;1986;52.546;13.428;2022-09-03T07:37:11;17.70;99.90
3944;DHT22;1986;52.546;13.428;2022-09-03T07:39:44;17.60;99.90
3944;DHT22;1986;52.546;13.428;2022-09-03T07:42:15;17.80;99.90
3944;DHT22;1986;52.546;13.428;2022-09-03T07:44:43;17.20;99.90
3944;DHT22;1986;52.546;13.428;2022-09-03T07:47:12;17.30;99.90
3944;DHT22;1986;52.546;13.428;2022-09-03T07:49:39;18.10;99.90
3944;DHT22;1986;52.546;13.428;2022-09-03T07:52:07;19.00;99.90
3944;DHT22;1986;52.546;13.428;2022-09-03T07:54:34;18.30;99.90
3944;DHT22;1986;52.546;13.428;2022-09-03T07:57:01;18.70;99.90
3944;DHT22;1986;52.546;13.428;2022-09-03T07:59:28;18.30;99.90
3944;DHT22;1986;52.546;13.428;2022-09-03T08:01:56;17.80;99.90
3944;DHT22;1986;52.546;13.428;2022-09-03T08:04:23;17.90;99.90
3944;DHT22;1986;52.546;13.428;2022-09-03T08:06:50;17.50;99.90
3944;DHT22;1986;52.546;13.428;2022-09-03T08:09:21;17.20;99.90
3944;DHT22;1986;52.546;13.428;2022-09-03T08:11:48;17.20;99.90
3944;DHT22;1986;52.546;13.428;2022-09-03T08:14:15;17.40;99.90
3944;DHT22;1986;52.546;13.428;2022-09-03T08:16:44;17.10;99.90
3944;DHT22;1986;52.546;13.428;2022-09-03T08:19:12;17.20;99.90
3944;DHT22;1986;52.546;13.428;2022-09-03T08:21:39;17.20;99.90
3944;DHT22;1986;52.546;13.428;2022-09-03T08:24:07;17.10;99.90
3944;DHT22;1986;52.546;13.428;2022-09-03T08:26:39;17.20;99.90
3944;DHT22;1986;52.546;13.428;2022-09-03T08:29:06;17.20;99.90
3944;DHT22;1986;52.546;13.428;2022-09-03T08:31:34;17.30;99.90
3944;DHT22;1986;52.546;13.428;2022-09-03T08:34:02;17.30;99.90
3944;DHT22;1986;52.546;13.428;2022-09-03T08:36:32;17.60;99.90
3944;DHT22;1986;52.546;13.428;2022-09-03T08:39:03;17.70;99.90
3944;DHT22;1986;52.546;13.428;2022-09-03T08:41:47;17.70;99.90
3944;DHT22;1986;52.546;13.428;2022-09-03T08:44:22;17.70;99.90
3944;DHT22;1986;52.546;13.428;2022-09-03T08:46:54;17.50;99.90
3944;DHT22;1986;52.546;13.428;2022-09-03T08:49:26;17.30;99.90
3944;DHT22;1986;52.546;13.428;2022-09-03T08:52:00;17.50;99.90
3944;DHT22;1986;52.546;13.428;2022-09-03T08:54:30;17.60;99.90
3944;DHT22;1986;52.546;13.428;2022-09-03T08:57:00;17.80;99.90
3944;DHT22;1986;52.546;13.428;2022-09-03T08:59:29;17.70;99.90
3944;DHT22;1986;52.546;13.428;2022-09-03T09:02:09;17.70;99.90
3944;DHT22;1986;52.546;13.428;2022-09-03T09:04:51;17.60;99.90
3944;DHT22;1986;52.546;13.428;2022-09-03T09:07:26;17.70;99.90
3944;DHT22;1986;52.546;13.428;2022-09-03T09:10:02;17.90;99.90
3944;DHT22;1986;52.546;13.428;2022-09-03T09:12:38;18.20;99.90
3944;DHT22;1986;52.546;13.428;2022-09-03T09:15:10;18.40;99.80
3944;DHT22;1986;52.546;13.428;2022-09-03T09:17:55;18.30;99.80
3944;DHT22;1986;52.546;13.428;2022-09-03T09:20:34;18.50;99.30
3944;DHT22;1986;52.546;13.428;2022-09-03T09:23:05;18.40;98.70
3944;DHT22;1986;52.546;13.428;2022-09-03T09:25:33;18.50;99.40
3944;DHT22;1986;52.546;13.428;2022-09-03T09:28:12;18.60;98.70
3944;DHT22;1986;52.546;13.428;2022-09-03T09:30:44;18.60;98.40
3944;DHT22;1986;52.546;13.428;2022-09-03T09:33:12;18.70;98.50
3944;DHT22;1986;52.546;13.428;2022-09-03T09:35:39;18.80;98.30
3944;DHT22;1986;52.546;13.428;2022-09-03T09:38:08;18.80;97.90
3944;DHT22;1986;52.546;13.428;2022-09-03T09:40:36;19.00;97.90
3944;DHT22;1986;52.546;13.428;2022-09-03T09:43:08;19.10;96.90
3944;DHT22;1986;52.546;13.428;2022-09-03T09:45:36;19.00;96.60
3944;DHT22;1986;52.546;13.428;2022-09-03T09:48:21;19.10;96.60
3944;DHT22;1986;52.546;13.428;2022-09-03T09:51:02;19.20;96.30
3944;DHT22;1986;52.546;13.428;2022-09-03T09:53:30;19.30;96.00
3944;DHT22;1986;52.546;13.428;2022-09-03T09:55:58;19.30;96.20
3944;DHT22;1986;52.546;13.428;2022-09-03T09:58:29;19.70;96.70
3944;DHT22;1986;52.546;13.428;2022-09-03T10:01:01;19.80;95.60
3944;DHT22;1986;52.546;13.428;2022-09-03T10:03:31;19.60;94.90
3944;DHT22;1986;52.546;13.428;2022-09-03T10:06:05;19.50;94.30
3944;DHT22;1986;52.546;13.428;2022-09-03T10:08:50;19.80;94.90
3944;DHT22;1986;52.546;13.428;2022-09-03T10:11:19;20.00;94.00
3944;DHT22;1986;52.546;13.428;2022-09-03T10:13:52;20.10;93.60
3944;DHT22;1986;52.546;13.428;2022-09-03T10:16:30;20.10;92.10
3944;DHT22;1986;52.546;13.428;2022-09-03T10:19:05;20.20;91.80
3944;DHT22;1986;52.546;13.428;2022-09-03T10:21:40;20.40;91.40
3944;DHT22;1986;52.546;13.428;2022-09-03T10:24:31;20.30;90.20
3944;DHT22;1986;52.546;13.428;2022-09-03T10:27:06;20.30;90.00
3944;DHT22;1986;52.546;13.428;2022-09-03T10:29:36;20.30;90.40
3944;DHT22;1986;52.546;13.428;2022-09-03T10:32:14;20.50;86.10
3944;DHT22;1986;52.546;13.428;2022-09-03T10:34:53;20.80;88.90
3944;DHT22;1986;52.546;13.428;2022-09-03T10:37:31;20.40;86.20
3944;DHT22;1986;52.546;13.428;2022-09-03T10:40:18;20.30;85.30
3944;DHT22;1986;52.546;13.428;2022-09-03T10:43:03;20.30;84.50
3944;DHT22;1986;52.546;13.428;2022-09-03T10:45:39;20.30;82.90
3944;DHT22;1986;52.546;13.428;2022-09-03T10:48:29;20.50;84.70
3944;DHT22;1986;52.546;13.428;2022-09-03T10:51:04;20.40;84.90
3944;DHT22;1986;52.546;13.428;2022-09-03T10:53:57;20.10;85.50
3944;DHT22;1986;52.546;13.428;2022-09-03T10:56:31;20.10;85.40
3944;DHT22;1986;52.546;13.428;2022-09-03T10:59:09;20.30;85.50
3944;DHT22;1986;52.546;13.428;2022-09-03T11:01:49;20.30;86.70
3944;DHT22;1986;52.546;13.428;2022-09-03T11:04:28;20.30;86.00
3944;DHT22;1986;52.546;13.428;2022-09-03T11:07:03;20.20;85.90
3944;DHT22;1986;52.546;13.428;2022-09-03T11:09:35;20.70;87.30
3944;DHT22;1986;52.546;13.428;2022-09-03T11:12:07;20.60;85.80
3944;DHT22;1986;52.546;13.428;2022-09-03T11:14:41;20.50;85.90
3944;DHT22;1986;52.546;13.428;2022-09-03T11:17:18;20.50;86.80
3944;DHT22;1986;52.546;13.428;2022-09-03T11:19:49;20.80;86.60
3944;DHT22;1986;52.546;13.428;2022-09-03T11:22:20;20.90;85.40
3944;DHT22;1986;52.546;13.428;2022-09-03T11:24:52;20.60;84.20
3944;DHT22;1986;52.546;13.428;2022-09-03T11:27:29;21.00;84.50
3944;DHT22;1986;52.546;13.428;2022-09-03T11:30:02;20.90;84.70
3944;DHT22;1986;52.546;13.428;2022-09-03T11:32:43;20.80;82.40
3944;DHT22;1986;52.546;13.428;2022-09-03T11:35:14;20.70;84.20
3944;DHT22;1986;52.546;13.428;2022-09-03T11:37:51;20.40;84.10
3944;DHT22;1986;52.546;13.428;2022-09-03T11:40:31;20.70;84.20
3944;DHT22;1986;52.546;13.428;2022-09-03T11:43:06;21.20;83.80
3944;DHT22;1986;52.546;13.428;2022-09-03T11:45:38;21.30;81.50
3944;DHT22;1986;52.546;13.428;2022-09-03T11:48:36;21.10;81.50
3944;DHT22;1986;52.546;13.428;2022-09-03T11:51:17;20.80;83.40
3944;DHT22;1986;52.546;13.428;2022-09-03T11:53:53;20.60;83.20
3944;DHT22;1986;52.546;13.428;2022-09-03T11:56:20;20.70;83.70
3944;DHT22;1986;52.546;13.428;2022-09-03T11:58:59;20.70;83.40
3944;DHT22;1986;52.546;13.428;2022-09-03T12:01:27;20.80;83.80
3944;DHT22;1986;52.546;13.428;2022-09-03T12:04:01;21.00;82.70
3944;DHT22;1986;52.546;13.428;2022-09-03T12:09:42;20.90;82.40
3944;DHT22;1986;52.546;13.428;2022-09-03T12:12:28;20.80;82.80
3944;DHT22;1986;52.546;13.428;2022-09-03T12:15:04;20.90;82.30
3944;DHT22;1986;52.546;13.428;2022-09-03T12:17:40;21.00;82.90
3944;DHT22;1986;52.546;13.428;2022-09-03T12:20:15;20.70;80.90
3944;DHT22;1986;52.546;13.428;2022-09-03T12:22:48;20.60;80.70
3944;DHT22;1986;52.546;13.428;2022-09-03T12:25:17;20.60;81.40
3944;DHT22;1986;52.546;13.428;2022-09-03T12:27:44;20.60;81.10
3944;DHT22;1986;52.546;13.428;2022-09-03T12:30:16;20.70;80.90
3944;DHT22;1986;52.546;13.428;2022-09-03T12:32:46;20.90;81.00
3944;DHT22;1986;52.546;13.428;2022-09-03T12:35:19;21.00;80.10
3944;DHT22;1986;52.546;13.428;2022-09-03T12:37:46;21.10;80.70
3944;DHT22;1986;52.546;13.428;2022-09-03T12:40:21;21.10;78.60
3944;DHT22;1986;52.546;13.428;2022-09-03T12:42:51;21.40;77.30
3944;DHT22;1986;52.546;13.428;2022-09-03T12:45:20;21.40;75.30
3944;DHT22;1986;52.546;13.428;2022-09-03T12:47:47;21.40;75.80
3944;DHT22;1986;52.546;13.428;2022-09-03T12:50:18;21.40;76.20
3944;DHT22;1986;52.546;13.428;2022-09-03T12:52:51;21.30;75.10
3944;DHT22;1986;52.546;13.428;2022-09-03T12:55:28;21.40;75.20
3944;DHT22;1986;52.546;13.428;2022-09-03T12:58:04;21.40;74.50
3944;DHT22;1986;52.546;13.428;2022-09-03T13:00:33;21.30;74.60
3944;DHT22;1986;52.546;13.428;2022-09-03T13:03:04;21.40;75.00
3944;DHT22;1986;52.546;13.428;2022-09-03T13:05:35;21.40;74.40
3944;DHT22;1986;52.546;13.428;2022-09-03T13:08:07;21.20;74.80
3944;DHT22;1986;52.546;13.428;2022-09-03T13:10:38;21.20;75.00
3944;DHT22;1986;52.546;13.428;2022-09-03T13:13:18;21.10;75.60
3944;DHT22;1986;52.546;13.428;2022-09-03T13:15:59;21.20;74.90
3944;DHT22;1986;52.546;13.428;2022-09-03T13:18:31;21.50;75.40
3944;DHT22;1986;52.546;13.428;2022-09-03T13:21:11;21.70;74.20
3944;DHT22;1986;52.546;13.428;2022-09-03T13:24:04;21.90;74.60
3944;DHT22;1986;52.546;13.428;2022-09-03T13:26:44;21.50;73.60
3944;DHT22;1986;52.546;13.428;2022-09-03T13:29:25;21.40;74.50
3944;DHT22;1986;52.546;13.428;2022-09-03T13:31:59;21.60;73.90
3944;DHT22;1986;52.546;13.428;2022-09-03T13:34:31;21.60;73.80
3944;DHT22;1986;52.546;13.428;2022-09-03T13:37:11;21.90;74.00
3944;DHT22;1986;52.546;13.428;2022-09-03T13:39:47;21.80;73.20
3944;DHT22;1986;52.546;13.428;2022-09-03T13:42:21;21.90;73.80
3944;DHT22;1986;52.546;13.428;2022-09-03T13:44:54;21.90;73.20
3944;DHT22;1986;52.546;13.428;2022-09-03T13:47:28;21.90;72.60
3944;DHT22;1986;52.546;13.428;2022-09-03T13:50:03;21.80;73.10
3944;DHT22;1986;52.546;13.428;2022-09-03T13:52:52;21.80;72.80
3944;DHT22;1986;52.546;13.428;2022-09-03T13:55:26;21.50;72.70
3944;DHT22;1986;52.546;13.428;2022-09-03T13:57:58;21.40;72.80
3944;DHT22;1986;52.546;13.428;2022-09-03T14:00:29;21.60;73.40
3944;DHT22;1986;52.546;13.428;2022-09-03T14:03:05;21.70;73.10
3944;DHT22;1986;52.546;13.428;2022-09-03T14:05:46;21.70;72.70
3944;DHT22;1986;52.546;13.428;2022-09-03T14:08:24;21.80;73.50
3944;DHT22;1986;52.546;13.428;2022-09-03T14:10:58;21.80;72.30
3944;DHT22;1986;52.546;13.428;2022-09-03T14:13:46;21.90;72.50
3944;DHT22;1986;52.546;13.428;2022-09-03T14:16:23;22.00;73.00
3944;DHT22;1986;52.546;13.428;2022-09-03T14:18:55;22.10;72.10
3944;DHT22;1986;52.546;13.428;2022-09-03T14:21:27;21.90;71.50
3944;DHT22;1986;52.546;13.428;2022-09-03T14:24:02;21.80;72.00
3944;DHT22;1986;52.546;13.428;2022-09-03T14:26:32;21.90;72.00
3944;DHT22;1986;52.546;13.428;2022-09-03T14:29:02;21.70;71.30
3944;DHT22;1986;52.546;13.428;2022-09-03T14:31:55;21.60;71.90
3944;DHT22;1986;52.546;13.428;2022-09-03T14:34:33;21.50;71.70
3944;DHT22;1986;52.546;13.428;2022-09-03T14:37:06;21.60;71.70
3944;DHT22;1986;52.546;13.428;2022-09-03T14:39:46;21.60;71.90
3944;DHT22;1986;52.546;13.428;2022-09-03T14:42:30;21.40;71.30
3944;DHT22;1986;52.546;13.428;2022-09-03T14:45:27;21.50;72.10
3944;DHT22;1986;52.546;13.428;2022-09-03T14:51:19;21.90;72.00
3944;DHT22;1986;52.546;13.428;2022-09-03T14:54:10;22.00;71.70
3944;DHT22;1986;52.546;13.428;2022-09-03T14:56:53;22.00;71.30
3944;DHT22;1986;52.546;13.428;2022-09-03T14:59:39;21.90;71.30
3944;DHT22;1986;52.546;13.428;2022-09-03T15:05:41;21.30;71.50
3944;DHT22;1986;52.546;13.428;2022-09-03T15:08:21;21.30;71.70
3944;DHT22;1986;52.546;13.428;2022-09-03T15:10:57;21.30;72.30
3944;DHT22;1986;52.546;13.428;2022-09-03T15:13:29;21.10;72.30
3944;DHT22;1986;52.546;13.428;2022-09-03T15:16:17;21.10;72.60
3944;DHT22;1986;52.546;13.428;2022-09-03T15:18:59;21.10;72.80
3944;DHT22;1986;52.546;13.428;2022-09-03T15:21:39;21.10;72.40
3944;DHT22;1986;52.546;13.428;2022-09-03T15:24:16;21.20;73.20
3944;DHT22;1986;52.546;13.428;2022-09-03T15:26:58;21.20;73.20
3944;DHT22;1986;52.546;13.428;2022-09-03T15:29:36;21.40;73.00
3944;DHT22;1986;52.546;13.428;2022-09-03T15:32:11;21.40;71.90
3944;DHT22;1986;52.546;13.428;2022-09-03T15:34:58;21.60;71.70
3944;DHT22;1986;52.546;13.428;2022-09-03T15:37:33;21.50;71.40
3944;DHT22;1986;52.546;13.428;2022-09-03T15:40:04;21.40;71.90
3944;DHT22;1986;52.546;13.428;2022-09-03T15:42:34;21.50;71.90
3944;DHT22;1986;52.546;13.428;2022-09-03T15:45:13;21.40;72.50
3944;DHT22;1986;52.546;13.428;2022-09-03T15:47:51;21.50;72.40
3944;DHT22;1986;52.546;13.428;2022-09-03T15:50:31;21.50;72.60
3944;DHT22;1986;52.546;13.428;2022-09-03T15:53:02;21.40;72.30
3944;DHT22;1986;52.546;13.428;2022-09-03T15:55:33;21.40;71.80
3944;DHT22;1986;52.546;13.428;2022-09-03T15:58:10;21.40;72.40
3944;DHT22;1986;52.546;13.428;2022-09-03T16:00:55;21.30;71.90
3944;DHT22;1986;52.546;13.428;2022-09-03T16:03:36;21.30;71.10
3944;DHT22;1986;52.546;13.428;2022-09-03T16:06:30;21.40;72.80
3944;DHT22;1986;52.546;13.428;2022-09-03T16:09:07;21.40;72.10
3944;DHT22;1986;52.546;13.428;2022-09-03T16:11:51;21.50;72.00
3944;DHT22;1986;52.546;13.428;2022-09-03T16:14:25;21.40;71.80
3944;DHT22;1986;52.546;13.428;2022-09-03T16:17:04;21.30;71.60
3944;DHT22;1986;52.546;13.428;2022-09-03T16:19:40;21.20;71.40
3944;DHT22;1986;52.546;13.428;2022-09-03T16:22:17;21.20;72.10
3944;DHT22;1986;52.546;13.428;2022-09-03T16:24:52;21.10;72.00
3944;DHT22;1986;52.546;13.428;2022-09-03T16:27:22;21.20;72.60
3944;DHT22;1986;52.546;13.428;2022-09-03T16:29:56;21.20;72.90
3944;DHT22;1986;52.546;13.428;2022-09-03T16:32:36;21.20;73.50
3944;DHT22;1986;52.546;13.428;2022-09-03T16:35:13;21.10;73.40
3944;DHT22;1986;52.546;13.428;2022-09-03T16:37:54;21.00;72.80